sensor_id;sensor_type;location;lat;lon;timestamp;temperature;humidity
44111;DHT22;29774;52.664;5.074;2023-06-10T00:01:48;18.80;65.50
44111;DHT22;29774;52.664;5.074;2023-06-10T00:04:16;18.70;65.50
44111;DHT22;29774;52.664;5.074;2023-06-10T00:06:46;18.70;65.50
44111;DHT22;29774;52.664;5.074;2023-06-10T00:09:14;18.70;65.40
44111;DHT22;29774;52.664;5.074;2023-06-10T00:11:41;18.70;65.40
44111;DHT22;29774;52.664;5.074;2023-06-10T00:14:07;18.70;65.20
44111;DHT22;29774;52.664;5.074;2023-06-10T00:16:33;18.70;64.90
44111;DHT22;29774;52.664;5.074;2023-06-10T00:19:00;18.70;64.70
44111;DHT22;29774;52.664;5.074;2023-06-10T00:21:31;18.70;64.70
44111;DHT22;29774;52.664;5.074;2023-06-10T00:24:07;18.70;64.30
44111;DHT22;29774;52.664;5.074;2023-06-10T00:26:40;18.70;64.30
44111;DHT22;29774;52.664;5.074;2023-06-10T00:29:06;18.70;64.20
44111;DHT22;29774;52.664;5.074;2023-06-10T00:31:33;18.70;64.30
44111;DHT22;29774;52.664;5.074;2023-06-10T00:33:59;18.70;64.30
44111;DHT22;29774;52.664;5.074;2023-06-10T00:36:25;18.70;64.20
44111;DHT22;29774;52.664;5.074;2023-06-10T00:38:50;18.70;64.30
44111;DHT22;29774;52.664;5.074;2023-06-10T00:41:16;18.60;64.30
44111;DHT22;29774;52.664;5.074;2023-06-10T00:43:41;18.60;64.20
44111;DHT22;29774;52.664;5.074;2023-06-10T00:46:07;18.60;64.10
44111;DHT22;29774;52.664;5.074;2023-06-10T00:48:33;18.70;64.20
44111;DHT22;29774;52.664;5.074;2023-06-10T00:50:59;18.60;64.10
44111;DHT22;29774;52.664;5.074;2023-06-10T00:53:26;18.60;63.90
44111;DHT22;29774;52.664;5.074;2023-06-10T00:55:52;18.60;63.90
44111;DHT22;29774;52.664;5.074;2023-06-10T00:58:18;18.60;63.90
44111;DHT22;29774;52.664;5.074;2023-06-10T01:00:43;18.60;63.90
44111;DHT22;29774;52.664;5.074;2023-06-10T01:03:10;18.60;64.10
44111;DHT22;29774;52.664;5.074;2023-06-10T01:05:38;18.50;64.30
44111;DHT22;29774;52.664;5.074;2023-06-10T01:08:31;18.50;64.40
44111;DHT22;29774;52.664;5.074;2023-06-10T01:11:00;18.50;64.50
44111;DHT22;29774;52.664;5.074;2023-06-10T01:13:28;18.40;64.50
44111;DHT22;29774;52.664;5.074;2023-06-10T01:15:55;18.50;64.40
44111;DHT22;29774;52.664;5.074;2023-06-10T01:18:22;18.50;64.00
44111;DHT22;29774;52.664;5.074;2023-06-10T01:20:48;18.40;64.00
44111;DHT22;29774;52.664;5.074;2023-06-10T01:23:14;18.40;64.00
44111;DHT22;29774;52.664;5.074;2023-06-10T01:25:53;18.40;64.20
44111;DHT22;29774;52.664;5.074;2023-06-10T01:28:45;18.30;64.30
44111;DHT22;29774;52.664;5.074;2023-06-10T01:33:47;18.30;64.80
44111;DHT22;29774;52.664;5.074;2023-06-10T01:36:16;18.40;64.90
44111;DHT22;29774;52.664;5.074;2023-06-10T01:38:44;18.30;65.00
44111;DHT22;29774;52.664;5.074;2023-06-10T01:41:11;18.30;65.20
44111;DHT22;29774;52.664;5.074;2023-06-10T01:43:38;18.30;65.30
44111;DHT22;29774;52.664;5.074;2023-06-10T01:46:04;18.20;65.50
44111;DHT22;29774;52.664;5.074;2023-06-10T01:48:31;18.20;65.70
44111;DHT22;29774;52.664;5.074;2023-06-10T01:50:56;18.20;66.00
44111;DHT22;29774;52.664;5.074;2023-06-10T01:53:22;18.20;66.10
44111;DHT22;29774;52.664;5.074;2023-06-10T01:55:48;18.20;66.00
44111;DHT22;29774;52.664;5.074;2023-06-10T01:58:14;18.20;66.00
44111;DHT22;29774;52.664;5.074;2023-06-10T02:00:40;18.20;66.20
44111;DHT22;29774;52.664;5.074;2023-06-10T02:03:06;18.10;66.30
44111;DHT22;29774;52.664;5.074;2023-06-10T02:05:31;18.10;66.50
44111;DHT22;29774;52.664;5.074;2023-06-10T02:07:57;18.10;66.50
44111;DHT22;29774;52.664;5.074;2023-06-10T02:10:23;18.00;66.70
44111;DHT22;29774;52.664;5.074;2023-06-10T02:12:48;18.00;66.80
44111;DHT22;29774;52.664;5.074;2023-06-10T02:15:14;18.00;67.00
44111;DHT22;29774;52.664;5.074;2023-06-10T02:17:40;18.00;67.10
44111;DHT22;29774;52.664;5.074;2023-06-10T02:20:06;18.00;67.30
44111;DHT22;29774;52.664;5.074;2023-06-10T02:22:36;18.00;67.50
44111;DHT22;29774;52.664;5.074;2023-06-10T02:25:03;17.90;67.70
44111;DHT22;29774;52.664;5.074;2023-06-10T02:27:29;17.90;67.90
44111;DHT22;29774;52.664;5.074;2023-06-10T02:29:56;17.90;68.10
44111;DHT22;29774;52.664;5.074;2023-06-10T02:32:22;17.90;68.40
44111;DHT22;29774;52.664;5.074;2023-06-10T02:34:48;17.80;68.50
44111;DHT22;29774;52.664;5.074;2023-06-10T02:37:15;17.80;69.00
44111;DHT22;29774;52.664;5.074;2023-06-10T02:39:40;17.80;69.10
44111;DHT22;29774;52.664;5.074;2023-06-10T02:42:07;17.80;69.30
44111;DHT22;29774;52.664;5.074;2023-06-10T02:44:32;17.70;69.50
44111;DHT22;29774;52.664;5.074;2023-06-10T02:46:58;17.80;69.60
44111;DHT22;29774;52.664;5.074;2023-06-10T02:49:24;17.70;69.70
44111;DHT22;29774;52.664;5.074;2023-06-10T02:51:52;17.70;69.90
44111;DHT22;29774;52.664;5.074;2023-06-10T02:54:19;17.70;70.10
44111;DHT22;29774;52.664;5.074;2023-06-10T02:56:45;17.70;70.30
44111;DHT22;29774;52.664;5.074;2023-06-10T02:59:13;17.60;70.60
44111;DHT22;29774;52.664;5.074;2023-06-10T03:01:39;17.60;70.90
44111;DHT22;29774;52.664;5.074;2023-06-10T03:04:05;17.50;71.20
44111;DHT22;29774;52.664;5.074;2023-06-10T03:06:31;17.50;71.40
44111;DHT22;29774;52.664;5.074;2023-06-10T03:09:01;17.50;71.50
44111;DHT22;29774;52.664;5.074;2023-06-10T03:11:29;17.50;71.60
44111;DHT22;29774;52.664;5.074;2023-06-10T03:13:55;17.40;71.70
44111;DHT22;29774;52.664;5.074;2023-06-10T03:16:20;17.40;71.90
44111;DHT22;29774;52.664;5.074;2023-06-10T03:18:46;17.40;71.90
44111;DHT22;29774;52.664;5.074;2023-06-10T03:21:11;17.40;72.00
44111;DHT22;29774;52.664;5.074;2023-06-10T03:23:37;17.40;72.00
44111;DHT22;29774;52.664;5.074;2023-06-10T03:26:03;17.40;72.10
44111;DHT22;29774;52.664;5.074;2023-06-10T03:28:30;17.30;72.20
44111;DHT22;29774;52.664;5.074;2023-06-10T03:30:56;17.30;72.30
44111;DHT22;29774;52.664;5.074;2023-06-10T03:33:22;17.30;72.40
44111;DHT22;29774;52.664;5.074;2023-06-10T03:35:48;17.30;72.50
44111;DHT22;29774;52.664;5.074;2023-06-10T03:38:13;17.30;72.70
44111;DHT22;29774;52.664;5.074;2023-06-10T03:40:39;17.30;72.80
44111;DHT22;29774;52.664;5.074;2023-06-10T03:43:05;17.30;72.90
44111;DHT22;29774;52.664;5.074;2023-06-10T03:45:31;17.20;73.20
44111;DHT22;29774;52.664;5.074;2023-06-10T03:47:57;17.20;73.30
44111;DHT22;29774;52.664;5.074;2023-06-10T03:50:23;17.20;73.40
44111;DHT22;29774;52.664;5.074;2023-06-10T03:52:50;17.30;73.50
44111;DHT22;29774;52.664;5.074;2023-06-10T03:55:16;17.30;73.20
44111;DHT22;29774;52.664;5.074;2023-06-10T03:57:43;17.30;73.30
44111;DHT22;29774;52.664;5.074;2023-06-10T04:00:09;17.20;73.30
44111;DHT22;29774;52.664;5.074;2023-06-10T04:02:38;17.30;73.40
44111;DHT22;29774;52.664;5.074;2023-06-10T04:05:11;17.30;73.30
44111;DHT22;29774;52.664;5.074;2023-06-10T04:07:37;17.30;73.20
44111;DHT22;29774;52.664;5.074;2023-06-10T04:10:05;17.30;73.30
44111;DHT22;29774;52.664;5.074;2023-06-10T04:12:31;17.30;73.30
44111;DHT22;29774;52.664;5.074;2023-06-10T04:14:57;17.30;73.30
44111;DHT22;29774;52.664;5.074;2023-06-10T04:17:22;17.30;73.30
44111;DHT22;29774;52.664;5.074;2023-06-10T04:19:48;17.30;73.40
44111;DHT22;29774;52.664;5.074;2023-06-10T04:22:13;17.30;73.50
44111;DHT22;29774;52.664;5.074;2023-06-10T04:24:39;17.30;73.50
44111;DHT22;29774;52.664;5.074;2023-06-10T04:27:05;17.30;73.70
44111;DHT22;29774;52.664;5.074;2023-06-10T04:29:30;17.40;73.80
44111;DHT22;29774;52.664;5.074;2023-06-10T04:31:56;17.40;73.90
44111;DHT22;29774;52.664;5.074;2023-06-10T04:34:22;17.40;73.90
44111;DHT22;29774;52.664;5.074;2023-06-10T04:36:47;17.40;73.90
44111;DHT22;29774;52.664;5.074;2023-06-10T04:39:13;17.40;73.70
44111;DHT22;29774;52.664;5.074;2023-06-10T04:41:39;17.50;73.60
44111;DHT22;29774;52.664;5.074;2023-06-10T04:44:04;17.50;73.60
44111;DHT22;29774;52.664;5.074;2023-06-10T04:46:30;17.50;73.40
44111;DHT22;29774;52.664;5.074;2023-06-10T04:48:57;17.50;73.30
44111;DHT22;29774;52.664;5.074;2023-06-10T04:51:22;17.50;73.10
44111;DHT22;29774;52.664;5.074;2023-06-10T04:53:48;17.60;72.80
44111;DHT22;29774;52.664;5.074;2023-06-10T04:56:13;17.60;72.50
44111;DHT22;29774;52.664;5.074;2023-06-10T04:58:40;17.60;72.40
44111;DHT22;29774;52.664;5.074;2023-06-10T05:01:06;17.70;72.10
44111;DHT22;29774;52.664;5.074;2023-06-10T05:03:31;17.70;72.00
44111;DHT22;29774;52.664;5.074;2023-06-10T05:05:57;17.70;71.60
44111;DHT22;29774;52.664;5.074;2023-06-10T05:08:23;17.70;71.50
44111;DHT22;29774;52.664;5.074;2023-06-10T05:10:48;17.80;71.40
44111;DHT22;29774;52.664;5.074;2023-06-10T05:13:16;17.80;71.30
44111;DHT22;29774;52.664;5.074;2023-06-10T05:15:41;17.90;71.10
44111;DHT22;29774;52.664;5.074;2023-06-10T05:18:10;18.00;70.90
44111;DHT22;29774;52.664;5.074;2023-06-10T05:20:37;18.20;70.30
44111;DHT22;29774;52.664;5.074;2023-06-10T05:23:02;18.40;70.10
44111;DHT22;29774;52.664;5.074;2023-06-10T05:25:30;18.60;69.30
44111;DHT22;29774;52.664;5.074;2023-06-10T05:27:55;18.70;68.50
44111;DHT22;29774;52.664;5.074;2023-06-10T05:30:21;18.90;68.40
44111;DHT22;29774;52.664;5.074;2023-06-10T05:32:48;19.10;67.50
44111;DHT22;29774;52.664;5.074;2023-06-10T05:35:14;19.20;67.10
44111;DHT22;29774;52.664;5.074;2023-06-10T05:37:39;19.40;66.60
44111;DHT22;29774;52.664;5.074;2023-06-10T05:40:06;19.50;65.80
44111;DHT22;29774;52.664;5.074;2023-06-10T05:42:32;19.70;65.70
44111;DHT22;29774;52.664;5.074;2023-06-10T05:44:57;19.80;64.90
44111;DHT22;29774;52.664;5.074;2023-06-10T05:47:23;19.90;64.30
44111;DHT22;29774;52.664;5.074;2023-06-10T05:49:48;20.00;64.00
44111;DHT22;29774;52.664;5.074;2023-06-10T05:52:17;20.10;63.50
44111;DHT22;29774;52.664;5.074;2023-06-10T05:54:43;20.20;63.10
44111;DHT22;29774;52.664;5.074;2023-06-10T05:57:08;20.30;62.60
44111;DHT22;29774;52.664;5.074;2023-06-10T05:59:34;20.50;62.40
44111;DHT22;29774;52.664;5.074;2023-06-10T06:01:59;20.60;61.70
44111;DHT22;29774;52.664;5.074;2023-06-10T06:04:25;20.60;61.40
44111;DHT22;29774;52.664;5.074;2023-06-10T06:06:51;20.70;61.60
44111;DHT22;29774;52.664;5.074;2023-06-10T06:09:16;20.90;61.00
44111;DHT22;29774;52.664;5.074;2023-06-10T06:11:42;20.90;60.40
44111;DHT22;29774;52.664;5.074;2023-06-10T06:14:07;21.10;60.40
44111;DHT22;29774;52.664;5.074;2023-06-10T06:16:33;21.20;60.30
44111;DHT22;29774;52.664;5.074;2023-06-10T06:18:59;21.30;59.10
44111;DHT22;29774;52.664;5.074;2023-06-10T06:21:25;21.40;58.80
44111;DHT22;29774;52.664;5.074;2023-06-10T06:23:50;21.60;58.60
44111;DHT22;29774;52.664;5.074;2023-06-10T06:26:16;21.70;58.20
44111;DHT22;29774;52.664;5.074;2023-06-10T06:28:41;21.80;57.90
44111;DHT22;29774;52.664;5.074;2023-06-10T06:31:07;21.80;57.40
44111;DHT22;29774;52.664;5.074;2023-06-10T06:33:33;22.00;57.50
44111;DHT22;29774;52.664;5.074;2023-06-10T06:35:58;22.10;57.00
44111;DHT22;29774;52.664;5.074;2023-06-10T06:38:26;22.20;56.20
44111;DHT22;29774;52.664;5.074;2023-06-10T06:40:51;22.20;55.60
44111;DHT22;29774;52.664;5.074;2023-06-10T06:43:17;22.30;55.70
44111;DHT22;29774;52.664;5.074;2023-06-10T06:45:44;22.40;55.50
44111;DHT22;29774;52.664;5.074;2023-06-10T06:48:11;22.50;55.70
44111;DHT22;29774;52.664;5.074;2023-06-10T06:50:36;22.50;55.30
44111;DHT22;29774;52.664;5.074;2023-06-10T06:53:03;22.70;54.90
44111;DHT22;29774;52.664;5.074;2023-06-10T06:55:28;22.80;54.60
44111;DHT22;29774;52.664;5.074;2023-06-10T06:57:54;22.80;54.30
44111;DHT22;29774;52.664;5.074;2023-06-10T07:00:21;23.00;54.10
44111;DHT22;29774;52.664;5.074;2023-06-10T07:02:46;23.00;53.40
44111;DHT22;29774;52.664;5.074;2023-06-10T07:05:12;23.00;53.50
44111;DHT22;29774;52.664;5.074;2023-06-10T07:07:38;23.20;53.30
44111;DHT22;29774;52.664;5.074;2023-06-10T07:10:04;23.40;52.90
44111;DHT22;29774;52.664;5.074;2023-06-10T07:12:29;23.50;52.20
44111;DHT22;29774;52.664;5.074;2023-06-10T07:14:55;23.60;51.60
44111;DHT22;29774;52.664;5.074;2023-06-10T07:17:21;23.60;51.50
44111;DHT22;29774;52.664;5.074;2023-06-10T07:19:46;23.70;51.70
44111;DHT22;29774;52.664;5.074;2023-06-10T07:22:12;23.80;51.90
44111;DHT22;29774;52.664;5.074;2023-06-10T07:24:37;23.90;50.90
44111;DHT22;29774;52.664;5.074;2023-06-10T07:27:03;23.90;50.80
44111;DHT22;29774;52.664;5.074;2023-06-10T07:29:29;24.00;50.40
44111;DHT22;29774;52.664;5.074;2023-06-10T07:31:54;24.10;49.80
44111;DHT22;29774;52.664;5.074;2023-06-10T07:34:20;24.10;49.70
44111;DHT22;29774;52.664;5.074;2023-06-10T07:36:46;24.40;49.70
44111;DHT22;29774;52.664;5.074;2023-06-10T07:39:11;24.60;50.00
44111;DHT22;29774;52.664;5.074;2023-06-10T07:41:37;24.80;48.40
44111;DHT22;29774;52.664;5.074;2023-06-10T07:44:02;24.90;48.50
44111;DHT22;29774;52.664;5.074;2023-06-10T07:46:28;24.90;48.10
44111;DHT22;29774;52.664;5.074;2023-06-10T07:48:54;24.90;48.30
44111;DHT22;29774;52.664;5.074;2023-06-10T07:51:20;25.10;48.00
44111;DHT22;29774;52.664;5.074;2023-06-10T07:53:46;25.10;47.30
44111;DHT22;29774;52.664;5.074;2023-06-10T07:56:12;25.20;46.50
44111;DHT22;29774;52.664;5.074;2023-06-10T07:58:37;25.30;46.40
44111;DHT22;29774;52.664;5.074;2023-06-10T08:01:03;25.50;46.30
44111;DHT22;29774;52.664;5.074;2023-06-10T08:03:29;25.70;44.90
44111;DHT22;29774;52.664;5.074;2023-06-10T08:05:54;25.80;44.90
44111;DHT22;29774;52.664;5.074;2023-06-10T08:08:20;26.00;44.90
44111;DHT22;29774;52.664;5.074;2023-06-10T08:10:45;26.10;44.20
44111;DHT22;29774;52.664;5.074;2023-06-10T08:13:11;26.10;44.70
44111;DHT22;29774;52.664;5.074;2023-06-10T08:15:37;26.20;44.10
44111;DHT22;29774;52.664;5.074;2023-06-10T08:18:02;26.40;43.40
44111;DHT22;29774;52.664;5.074;2023-06-10T08:20:28;26.60;43.30
44111;DHT22;29774;52.664;5.074;2023-06-10T08:22:54;26.70;42.10
44111;DHT22;29774;52.664;5.074;2023-06-10T08:25:19;26.80;41.40
44111;DHT22;29774;52.664;5.074;2023-06-10T08:27:47;26.80;41.20
44111;DHT22;29774;52.664;5.074;2023-06-10T08:30:13;26.80;41.30
44111;DHT22;29774;52.664;5.074;2023-06-10T08:32:38;26.80;41.00
44111;DHT22;29774;52.664;5.074;2023-06-10T08:35:04;26.90;41.40
44111;DHT22;29774;52.664;5.074;2023-06-10T08:37:30;27.10;41.20
44111;DHT22;29774;52.664;5.074;2023-06-10T08:39:56;27.20;40.70
44111;DHT22;29774;52.664;5.074;2023-06-10T08:42:27;27.40;39.90
44111;DHT22;29774;52.664;5.074;2023-06-10T08:44:54;27.50;40.40
44111;DHT22;29774;52.664;5.074;2023-06-10T08:47:23;27.60;40.80
44111;DHT22;29774;52.664;5.074;2023-06-10T08:49:50;27.90;40.30
44111;DHT22;29774;52.664;5.074;2023-06-10T08:52:19;27.90;39.60
44111;DHT22;29774;52.664;5.074;2023-06-10T08:54:49;28.00;39.30
44111;DHT22;29774;52.664;5.074;2023-06-10T08:57:18;28.20;39.80
44111;DHT22;29774;52.664;5.074;2023-06-10T08:59:48;28.30;38.80
44111;DHT22;29774;52.664;5.074;2023-06-10T09:02:15;28.50;39.00
44111;DHT22;29774;52.664;5.074;2023-06-10T09:04:43;28.50;37.80
44111;DHT22;29774;52.664;5.074;2023-06-10T09:07:10;28.50;37.70
44111;DHT22;29774;52.664;5.074;2023-06-10T09:09:36;28.50;37.70
44111;DHT22;29774;52.664;5.074;2023-06-10T09:12:02;28.70;36.70
44111;DHT22;29774;52.664;5.074;2023-06-10T09:14:28;28.70;37.40
44111;DHT22;29774;52.664;5.074;2023-06-10T09:16:54;28.60;36.90
44111;DHT22;29774;52.664;5.074;2023-06-10T09:19:24;28.60;37.40
44111;DHT22;29774;52.664;5.074;2023-06-10T09:21:50;28.70;37.90
44111;DHT22;29774;52.664;5.074;2023-06-10T09:24:16;28.90;38.00
44111;DHT22;29774;52.664;5.074;2023-06-10T09:26:42;28.90;37.50
44111;DHT22;29774;52.664;5.074;2023-06-10T09:29:09;29.00;37.40
44111;DHT22;29774;52.664;5.074;2023-06-10T09:31:38;28.80;38.20
44111;DHT22;29774;52.664;5.074;2023-06-10T09:34:08;29.00;37.40
44111;DHT22;29774;52.664;5.074;2023-06-10T09:36:35;29.10;37.50
44111;DHT22;29774;52.664;5.074;2023-06-10T09:39:01;29.20;36.90
44111;DHT22;29774;52.664;5.074;2023-06-10T09:41:40;29.30;36.60
44111;DHT22;29774;52.664;5.074;2023-06-10T09:44:19;29.30;36.20
44111;DHT22;29774;52.664;5.074;2023-06-10T09:46:46;29.60;35.90
44111;DHT22;29774;52.664;5.074;2023-06-10T09:49:13;29.80;34.80
44111;DHT22;29774;52.664;5.074;2023-06-10T09:51:49;30.00;34.40
44111;DHT22;29774;52.664;5.074;2023-06-10T09:54:16;30.00;34.60
44111;DHT22;29774;52.664;5.074;2023-06-10T09:56:41;29.70;34.80
44111;DHT22;29774;52.664;5.074;2023-06-10T09:59:08;29.80;35.20
44111;DHT22;29774;52.664;5.074;2023-06-10T10:01:34;29.90;34.80
44111;DHT22;29774;52.664;5.074;2023-06-10T10:04:00;29.80;34.20
44111;DHT22;29774;52.664;5.074;2023-06-10T10:06:26;29.80;34.30
44111;DHT22;29774;52.664;5.074;2023-06-10T10:08:52;29.70;34.90
44111;DHT22;29774;52.664;5.074;2023-06-10T10:11:20;29.80;34.30
44111;DHT22;29774;52.664;5.074;2023-06-10T10:13:52;29.90;33.80
44111;DHT22;29774;52.664;5.074;2023-06-10T10:16:29;29.90;34.00
44111;DHT22;29774;52.664;5.074;2023-06-10T10:19:00;29.80;34.30
44111;DHT22;29774;52.664;5.074;2023-06-10T10:21:32;29.90;35.10
44111;DHT22;29774;52.664;5.074;2023-06-10T10:24:21;30.00;35.00
44111;DHT22;29774;52.664;5.074;2023-06-10T10:26:48;30.20;34.00
44111;DHT22;29774;52.664;5.074;2023-06-10T10:29:23;30.20;33.80
44111;DHT22;29774;52.664;5.074;2023-06-10T10:31:51;30.20;33.70
44111;DHT22;29774;52.664;5.074;2023-06-10T10:34:27;30.20;33.50
44111;DHT22;29774;52.664;5.074;2023-06-10T10:36:55;30.20;33.90
44111;DHT22;29774;52.664;5.074;2023-06-10T10:39:22;30.40;34.20
44111;DHT22;29774;52.664;5.074;2023-06-10T10:41:48;30.50;33.70
44111;DHT22;29774;52.664;5.074;2023-06-10T10:44:15;30.60;32.40
44111;DHT22;29774;52.664;5.074;2023-06-10T10:46:48;30.70;32.50
44111;DHT22;29774;52.664;5.074;2023-06-10T10:49:27;31.00;33.20
44111;DHT22;29774;52.664;5.074;2023-06-10T10:52:00;31.20;31.20
44111;DHT22;29774;52.664;5.074;2023-06-10T10:54:32;31.40;31.70
44111;DHT22;29774;52.664;5.074;2023-06-10T10:57:14;31.40;31.70
44111;DHT22;29774;52.664;5.074;2023-06-10T11:00:06;31.90;31.50
44111;DHT22;29774;52.664;5.074;2023-06-10T11:02:41;31.80;31.80
44111;DHT22;29774;52.664;5.074;2023-06-10T11:05:13;31.80;31.70
44111;DHT22;29774;52.664;5.074;2023-06-10T11:07:40;31.90;31.00
44111;DHT22;29774;52.664;5.074;2023-06-10T11:12:59;31.70;31.80
44111;DHT22;29774;52.664;5.074;2023-06-10T11:15:29;31.80;31.90
44111;DHT22;29774;52.664;5.074;2023-06-10T11:31:23;32.30;31.50
44111;DHT22;29774;52.664;5.074;2023-06-10T11:33:53;32.20;31.30
44111;DHT22;29774;52.664;5.074;2023-06-10T11:36:19;32.30;31.50
44111;DHT22;29774;52.664;5.074;2023-06-10T11:38:45;32.30;31.00
44111;DHT22;29774;52.664;5.074;2023-06-10T11:41:11;32.30;31.20
44111;DHT22;29774;52.664;5.074;2023-06-10T11:43:44;32.50;31.60
44111;DHT22;29774;52.664;5.074;2023-06-10T11:46:11;32.60;31.50
44111;DHT22;29774;52.664;5.074;2023-06-10T11:48:36;32.30;32.10
44111;DHT22;29774;52.664;5.074;2023-06-10T11:51:08;32.00;32.40
44111;DHT22;29774;52.664;5.074;2023-06-10T11:53:34;32.10;32.60
44111;DHT22;29774;52.664;5.074;2023-06-10T11:56:00;31.90;32.40
44111;DHT22;29774;52.664;5.074;2023-06-10T11:58:26;31.70;32.90
44111;DHT22;29774;52.664;5.074;2023-06-10T12:00:53;32.10;32.30
44111;DHT22;29774;52.664;5.074;2023-06-10T12:03:20;31.30;33.80
44111;DHT22;29774;52.664;5.074;2023-06-10T12:05:58;31.50;33.10
44111;DHT22;29774;52.664;5.074;2023-06-10T12:08:27;31.90;31.90
44111;DHT22;29774;52.664;5.074;2023-06-10T12:10:53;32.20;32.80
44111;DHT22;29774;52.664;5.074;2023-06-10T12:13:20;32.20;32.00
44111;DHT22;29774;52.664;5.074;2023-06-10T12:15:46;32.50;31.80
44111;DHT22;29774;52.664;5.074;2023-06-10T12:18:22;32.30;31.40
44111;DHT22;29774;52.664;5.074;2023-06-10T12:20:48;32.30;31.60
44111;DHT22;29774;52.664;5.074;2023-06-10T12:23:15;32.40;31.20
44111;DHT22;29774;52.664;5.074;2023-06-10T12:25:53;32.20;31.30
44111;DHT22;29774;52.664;5.074;2023-06-10T12:28:26;32.10;30.90
44111;DHT22;29774;52.664;5.074;2023-06-10T12:31:07;32.10;30.90
44111;DHT22;29774;52.664;5.074;2023-06-10T12:33:33;32.20;31.40
44111;DHT22;29774;52.664;5.074;2023-06-10T12:35:59;32.00;31.90
44111;DHT22;29774;52.664;5.074;2023-06-10T12:38:26;32.00;31.60
44111;DHT22;29774;52.664;5.074;2023-06-10T12:41:01;32.20;31.20
44111;DHT22;29774;52.664;5.074;2023-06-10T12:43:31;32.30;31.90
44111;DHT22;29774;52.664;5.074;2023-06-10T12:46:08;31.50;32.40
44111;DHT22;29774;52.664;5.074;2023-06-10T12:48:34;31.80;31.80
44111;DHT22;29774;52.664;5.074;2023-06-10T12:51:01;32.20;32.40
44111;DHT22;29774;52.664;5.074;2023-06-10T12:53:26;32.30;30.90
44111;DHT22;29774;52.664;5.074;2023-06-10T12:55:52;32.20;30.90
44111;DHT22;29774;52.664;5.074;2023-06-10T12:58:22;32.10;31.40
44111;DHT22;29774;52.664;5.074;2023-06-10T13:00:48;32.20;30.60
44111;DHT22;29774;52.664;5.074;2023-06-10T13:03:14;32.30;30.20
44111;DHT22;29774;52.664;5.074;2023-06-10T13:05:40;32.20;30.40
44111;DHT22;29774;52.664;5.074;2023-06-10T13:08:06;32.40;30.90
44111;DHT22;29774;52.664;5.074;2023-06-10T13:10:33;32.60;29.60
44111;DHT22;29774;52.664;5.074;2023-06-10T13:13:00;32.30;29.80
44111;DHT22;29774;52.664;5.074;2023-06-10T13:15:26;32.20;29.70
44111;DHT22;29774;52.664;5.074;2023-06-10T13:17:52;32.30;30.10
44111;DHT22;29774;52.664;5.074;2023-06-10T13:20:19;32.50;29.40
44111;DHT22;29774;52.664;5.074;2023-06-10T13:22:45;32.50;28.90
44111;DHT22;29774;52.664;5.074;2023-06-10T13:25:11;32.40;28.60
44111;DHT22;29774;52.664;5.074;2023-06-10T13:27:37;32.40;28.30
44111;DHT22;29774;52.664;5.074;2023-06-10T13:30:08;32.00;29.30
44111;DHT22;29774;52.664;5.074;2023-06-10T13:32:35;32.10;29.60
44111;DHT22;29774;52.664;5.074;2023-06-10T13:35:00;32.20;28.80
44111;DHT22;29774;52.664;5.074;2023-06-10T13:37:26;32.30;27.90
44111;DHT22;29774;52.664;5.074;2023-06-10T13:39:52;32.50;28.30
44111;DHT22;29774;52.664;5.074;2023-06-10T13:42:18;32.40;27.30
44111;DHT22;29774;52.664;5.074;2023-06-10T13:44:44;32.20;27.70
44111;DHT22;29774;52.664;5.074;2023-06-10T13:47:10;32.10;27.80
44111;DHT22;29774;52.664;5.074;2023-06-10T13:49:36;32.20;28.30
44111;DHT22;29774;52.664;5.074;2023-06-10T13:52:02;32.30;28.50
44111;DHT22;29774;52.664;5.074;2023-06-10T13:54:28;32.40;28.00
44111;DHT22;29774;52.664;5.074;2023-06-10T13:56:53;32.20;28.40
44111;DHT22;29774;52.664;5.074;2023-06-10T13:59:19;32.40;26.70
44111;DHT22;29774;52.664;5.074;2023-06-10T14:01:46;32.30;26.20
44111;DHT22;29774;52.664;5.074;2023-06-10T14:04:11;32.20;27.00
44111;DHT22;29774;52.664;5.074;2023-06-10T14:06:37;32.20;25.50
44111;DHT22;29774;52.664;5.074;2023-06-10T14:09:03;32.20;24.50
44111;DHT22;29774;52.664;5.074;2023-06-10T14:11:28;32.20;25.00
44111;DHT22;29774;52.664;5.074;2023-06-10T14:13:54;32.30;25.70
44111;DHT22;29774;52.664;5.074;2023-06-10T14:16:22;32.50;26.60
44111;DHT22;29774;52.664;5.074;2023-06-10T14:18:47;32.30;26.50
44111;DHT22;29774;52.664;5.074;2023-06-10T14:21:13;31.80;26.70
44111;DHT22;29774;52.664;5.074;2023-06-10T14:23:39;31.80;27.60
44111;DHT22;29774;52.664;5.074;2023-06-10T14:26:04;31.70;27.80
44111;DHT22;29774;52.664;5.074;2023-06-10T14:28:32;31.70;27.00
44111;DHT22;29774;52.664;5.074;2023-06-10T14:30:58;31.50;26.30
44111;DHT22;29774;52.664;5.074;2023-06-10T14:33:23;31.20;26.40
44111;DHT22;29774;52.664;5.074;2023-06-10T14:35:49;30.60;26.90
44111;DHT22;29774;52.664;5.074;2023-06-10T14:38:15;30.20;27.10
44111;DHT22;29774;52.664;5.074;2023-06-10T14:40:40;29.90;27.70
44111;DHT22;29774;52.664;5.074;2023-06-10T14:43:06;29.70;28.40
44111;DHT22;29774;52.664;5.074;2023-06-10T14:45:39;29.60;30.40
44111;DHT22;29774;52.664;5.074;2023-06-10T14:48:06;29.10;30.40
44111;DHT22;29774;52.664;5.074;2023-06-10T14:50:32;28.90;30.40
44111;DHT22;29774;52.664;5.074;2023-06-10T14:52:58;28.80;32.70
44111;DHT22;29774;52.664;5.074;2023-06-10T14:55:24;28.50;34.10
44111;DHT22;29774;52.664;5.074;2023-06-10T14:57:50;28.20;34.40
44111;DHT22;29774;52.664;5.074;2023-06-10T15:00:16;28.00;34.00
44111;DHT22;29774;52.664;5.074;2023-06-10T15:02:46;27.80;33.30
44111;DHT22;29774;52.664;5.074;2023-06-10T15:05:15;27.90;33.50
44111;DHT22;29774;52.664;5.074;2023-06-10T15:07:41;27.70;36.20
44111;DHT22;29774;52.664;5.074;2023-06-10T15:10:07;27.50;38.90
44111;DHT22;29774;52.664;5.074;2023-06-10T15:12:33;27.40;34.20
44111;DHT22;29774;52.664;5.074;2023-06-10T15:14:59;27.30;34.30
44111;DHT22;29774;52.664;5.074;2023-06-10T15:17:25;27.20;33.30
44111;DHT22;29774;52.664;5.074;2023-06-10T15:19:51;27.30;33.40
44111;DHT22;29774;52.664;5.074;2023-06-10T15:22:17;27.20;33.00
44111;DHT22;29774;52.664;5.074;2023-06-10T15:24:42;27.20;34.20
44111;DHT22;29774;52.664;5.074;2023-06-10T15:27:08;27.10;33.00
44111;DHT22;29774;52.664;5.074;2023-06-10T15:29:34;27.00;30.40
44111;DHT22;29774;52.664;5.074;2023-06-10T15:31:59;27.00;29.90
44111;DHT22;29774;52.664;5.074;2023-06-10T15:34:25;27.00;32.00
44111;DHT22;29774;52.664;5.074;2023-06-10T15:36:51;27.00;30.40
44111;DHT22;29774;52.664;5.074;2023-06-10T15:39:16;27.00;30.60
44111;DHT22;29774;52.664;5.074;2023-06-10T15:41:44;26.90;29.50
44111;DHT22;29774;52.664;5.074;2023-06-10T15:44:09;26.90;30.30
44111;DHT22;29774;52.664;5.074;2023-06-10T15:46:35;26.90;30.30
44111;DHT22;29774;52.664;5.074;2023-06-10T15:49:01;26.90;34.20